sensor_id;sensor_type;location;lat;lon;timestamp;pressure;altitude;pressure_sealevel;temperature;humidity
60437;BME280;46289;51.992;4.498;2024-02-21T00:00:14;102187.41;;;8.71;100.00
60437;BME280;46289;51.992;4.498;2024-02-21T00:02:22;102186.47;;;8.76;100.00
60437;BME280;46289;51.992;4.498;2024-02-21T00:04:27;102183.88;;;8.73;100.00
60437;BME280;46289;51.992;4.498;2024-02-21T00:06:33;102181.25;;;8.75;100.00
60437;BME280;46289;51.992;4.498;2024-02-21T00:08:38;102174.22;;;8.80;100.00
60437;BME280;46289;51.992;4.498;2024-02-21T00:10:43;102182.03;;;8.82;100.00
60437;BME280;46289;51.992;4.498;2024-02-21T00:12:48;102187.38;;;8.74;100.00
60437;BME280;46289;51.992;4.498;2024-02-21T00:14:54;102189.09;;;8.79;100.00
60437;BME280;46289;51.992;4.498;2024-02-21T00:16:59;102172.47;;;8.81;100.00
60437;BME280;46289;51.992;4.498;2024-02-21T00:19:06;102174.25;;;8.77;100.00
60437;BME280;46289;51.992;4.498;2024-02-21T00:21:12;102165.50;;;8.78;100.00
60437;BME280;46289;51.992;4.498;2024-02-21T00:23:20;102167.22;;;8.81;100.00
60437;BME280;46289;51.992;4.498;2024-02-21T00:25:28;102182.09;;;8.78;100.00
60437;BME280;46289;51.992;4.498;2024-02-21T00:27:33;102184.66;;;8.82;100.00
60437;BME280;46289;51.992;4.498;2024-02-21T00:29:38;102189.00;;;8.86;100.00
60437;BME280;46289;51.992;4.498;2024-02-21T00:31:43;102192.53;;;8.83;100.00
60437;BME280;46289;51.992;4.498;2024-02-21T00:33:48;102190.81;;;8.79;100.00
60437;BME280;46289;51.992;4.498;2024-02-21T00:35:58;102198.63;;;8.85;100.00
60437;BME280;46289;51.992;4.498;2024-02-21T00:38:03;102188.13;;;8.85;100.00
60437;BME280;46289;51.992;4.498;2024-02-21T00:40:08;102180.25;;;8.88;100.00
60437;BME280;46289;51.992;4.498;2024-02-21T00:42:11;102175.00;;;8.88;100.00
60437;BME280;46289;51.992;4.498;2024-02-21T00:44:16;102181.09;;;8.90;100.00
60437;BME280;46289;51.992;4.498;2024-02-21T00:46:24;102171.50;;;8.88;100.00
60437;BME280;46289;51.992;4.498;2024-02-21T00:48:27;102178.47;;;8.89;100.00
60437;BME280;46289;51.992;4.498;2024-02-21T00:50:32;102171.47;;;8.89;100.00
60437;BME280;46289;51.992;4.498;2024-02-21T00:52:42;102187.19;;;8.89;100.00
60437;BME280;46289;51.992;4.498;2024-02-21T00:54:47;102168.88;;;8.86;100.00
60437;BME280;46289;51.992;4.498;2024-02-21T00:56:55;102167.13;;;8.87;100.00
60437;BME280;46289;51.992;4.498;2024-02-21T00:59:00;102160.97;;;8.89;100.00
60437;BME280;46289;51.992;4.498;2024-02-21T01:01:05;102161.03;;;8.88;100.00
60437;BME280;46289;51.992;4.498;2024-02-21T01:03:08;102146.16;;;8.87;100.00
60437;BME280;46289;51.992;4.498;2024-02-21T01:05:13;102151.41;;;8.87;100.00
60437;BME280;46289;51.992;4.498;2024-02-21T01:07:15;102151.34;;;8.91;100.00
60437;BME280;46289;51.992;4.498;2024-02-21T01:09:23;102141.72;;;8.92;100.00
60437;BME280;46289;51.992;4.498;2024-02-21T01:11:28;102148.75;;;8.90;100.00
60437;BME280;46289;51.992;4.498;2024-02-21T01:13:33;102129.56;;;8.88;100.00
60437;BME280;46289;51.992;4.498;2024-02-21T01:15:38;102148.72;;;8.91;100.00
60437;BME280;46289;51.992;4.498;2024-02-21T01:17:43;102138.25;;;8.90;100.00
60437;BME280;46289;51.992;4.498;2024-02-21T01:19:52;102139.16;;;8.90;100.00
60437;BME280;46289;51.992;4.498;2024-02-21T01:21:57;102134.78;;;8.89;100.00
60437;BME280;46289;51.992;4.498;2024-02-21T01:24:02;102130.38;;;8.90;100.00
60437;BME280;46289;51.992;4.498;2024-02-21T01:26:10;102125.16;;;8.90;100.00
60437;BME280;46289;51.992;4.498;2024-02-21T01:28:17;102133.91;;;8.90;100.00
60437;BME280;46289;51.992;4.498;2024-02-21T01:30:23;102124.31;;;8.88;100.00
60437;BME280;46289;51.992;4.498;2024-02-21T01:32:29;102117.31;;;8.87;100.00
60437;BME280;46289;51.992;4.498;2024-02-21T01:34:31;102122.53;;;8.90;100.00
60437;BME280;46289;51.992;4.498;2024-02-21T01:36:38;102120.78;;;8.90;100.00
60437;BME280;46289;51.992;4.498;2024-02-21T01:38:43;102126.03;;;8.90;100.00
60437;BME280;46289;51.992;4.498;2024-02-21T01:40:48;102112.03;;;8.90;100.00
60437;BME280;46289;51.992;4.498;2024-02-21T01:42:58;102110.28;;;8.92;100.00
60437;BME280;46289;51.992;4.498;2024-02-21T01:45:03;102111.22;;;8.86;100.00
60437;BME280;46289;51.992;4.498;2024-02-21T01:47:09;102112.97;;;8.86;100.00
60437;BME280;46289;51.992;4.498;2024-02-21T01:49:15;102112.97;;;8.86;100.00
60437;BME280;46289;51.992;4.498;2024-02-21T01:51:21;102106.78;;;8.90;100.00
60437;BME280;46289;51.992;4.498;2024-02-21T01:53:29;102110.38;;;8.86;100.00
60437;BME280;46289;51.992;4.498;2024-02-21T01:55:35;102111.28;;;8.83;100.00
60437;BME280;46289;51.992;4.498;2024-02-21T01:57:44;102111.22;;;8.86;100.00
60437;BME280;46289;51.992;4.498;2024-02-21T01:59:53;102108.56;;;8.89;100.00
60437;BME280;46289;51.992;4.498;2024-02-21T02:01:58;102092.88;;;8.88;100.00
60437;BME280;46289;51.992;4.498;2024-02-21T02:04:06;102098.09;;;8.88;100.00
60437;BME280;46289;51.992;4.498;2024-02-21T02:06:11;102093.72;;;8.88;100.00
60437;BME280;46289;51.992;4.498;2024-02-21T02:08:17;102093.75;;;8.87;100.00
60437;BME280;46289;51.992;4.498;2024-02-21T02:10:24;102088.53;;;8.85;100.00
60437;BME280;46289;51.992;4.498;2024-02-21T02:12:26;102099.03;;;8.85;100.00
60437;BME280;46289;51.992;4.498;2024-02-21T02:14:31;102092.06;;;8.83;100.00
60437;BME280;46289;51.992;4.498;2024-02-21T02:16:41;102088.53;;;8.84;100.00
60437;BME280;46289;51.992;4.498;2024-02-21T02:18:46;102087.69;;;8.82;100.00
60437;BME280;46289;51.992;4.498;2024-02-21T02:20:54;102089.50;;;8.78;100.00
60437;BME280;46289;51.992;4.498;2024-02-21T02:23:00;102090.31;;;8.82;100.00
60437;BME280;46289;51.992;4.498;2024-02-21T02:25:10;102078.91;;;8.84;100.00
60437;BME280;46289;51.992;4.498;2024-02-21T02:27:15;102074.56;;;8.82;100.00
60437;BME280;46289;51.992;4.498;2024-02-21T02:29:18;102073.75;;;8.79;100.00
60437;BME280;46289;51.992;4.498;2024-02-21T02:31:23;102071.06;;;8.84;100.00
60437;BME280;46289;51.992;4.498;2024-02-21T02:33:28;102072.84;;;8.82;100.00
60437;BME280;46289;51.992;4.498;2024-02-21T02:35:33;102072.06;;;8.75;100.00
60437;BME280;46289;51.992;4.498;2024-02-21T02:37:37;102065.03;;;8.77;100.00
60437;BME280;46289;51.992;4.498;2024-02-21T02:39:43;102066.75;;;8.78;100.00
60437;BME280;46289;51.992;4.498;2024-02-21T02:41:53;102056.34;;;8.74;100.00
60437;BME280;46289;51.992;4.498;2024-02-21T02:43:58;102066.81;;;8.75;100.00
60437;BME280;46289;51.992;4.498;2024-02-21T02:46:03;102059.75;;;8.81;100.00
60437;BME280;46289;51.992;4.498;2024-02-21T02:48:08;102057.13;;;8.79;100.00
60437;BME280;46289;51.992;4.498;2024-02-21T02:50:14;102055.41;;;8.79;100.00
60437;BME280;46289;51.992;4.498;2024-02-21T02:52:16;102050.16;;;8.79;100.00
60437;BME280;46289;51.992;4.498;2024-02-21T02:54:25;102040.50;;;8.82;100.00
60437;BME280;46289;51.992;4.498;2024-02-21T02:56:30;102030.00;;;8.85;100.00
60437;BME280;46289;51.992;4.498;2024-02-21T02:58:38;102024.78;;;8.83;100.00
60437;BME280;46289;51.992;4.498;2024-02-21T03:00:43;102023.91;;;8.81;100.00
60437;BME280;46289;51.992;4.498;2024-02-21T03:02:48;102012.63;;;8.77;100.00
60437;BME280;46289;51.992;4.498;2024-02-21T03:04:55;102018.72;;;8.79;100.00
60437;BME280;46289;51.992;4.498;2024-02-21T03:07:00;102028.31;;;8.81;100.00
60437;BME280;46289;51.992;4.498;2024-02-21T03:09:05;102018.72;;;8.79;100.00
60437;BME280;46289;51.992;4.498;2024-02-21T03:11:10;102018.72;;;8.79;100.00
60437;BME280;46289;51.992;4.498;2024-02-21T03:13:16;102022.19;;;8.80;100.00
60437;BME280;46289;51.992;4.498;2024-02-21T03:15:22;102009.16;;;8.75;100.00
60437;BME280;46289;51.992;4.498;2024-02-21T03:17:27;101999.56;;;8.73;100.00
60437;BME280;46289;51.992;4.498;2024-02-21T03:19:32;101995.13;;;8.78;100.00
60437;BME280;46289;51.992;4.498;2024-02-21T03:21:38;101984.66;;;8.76;100.00
60437;BME280;46289;51.992;4.498;2024-02-21T03:23:44;101983.75;;;8.79;100.00
60437;BME280;46289;51.992;4.498;2024-02-21T03:25:49;101984.59;;;8.81;100.00
60437;BME280;46289;51.992;4.498;2024-02-21T03:27:54;101987.28;;;8.79;100.00
60437;BME280;46289;51.992;4.498;2024-02-21T03:29:59;101985.56;;;8.77;100.00
60437;BME280;46289;51.992;4.498;2024-02-21T03:32:07;101982.94;;;8.77;100.00
60437;BME280;46289;51.992;4.498;2024-02-21T03:34:12;101984.66;;;8.76;100.00
60437;BME280;46289;51.992;4.498;2024-02-21T03:36:17;101976.00;;;8.71;100.00
60437;BME280;46289;51.992;4.498;2024-02-21T03:38:22;101983.00;;;8.72;100.00
60437;BME280;46289;51.992;4.498;2024-02-21T03:40:27;101977.75;;;8.72;100.00
60437;BME280;46289;51.992;4.498;2024-02-21T03:42:32;101983.00;;;8.72;100.00
60437;BME280;46289;51.992;4.498;2024-02-21T03:44:38;101978.59;;;8.74;100.00
60437;BME280;46289;51.992;4.498;2024-02-21T03:46:41;101979.53;;;8.70;100.00
60437;BME280;46289;51.992;4.498;2024-02-21T03:48:48;101983.09;;;8.65;100.00
60437;BME280;46289;51.992;4.498;2024-02-21T03:50:53;101977.84;;;8.66;100.00
60437;BME280;46289;51.992;4.498;2024-02-21T03:52:58;101970.00;;;8.63;100.00
60437;BME280;46289;51.992;4.498;2024-02-21T03:55:04;101976.09;;;8.65;100.00
60437;BME280;46289;51.992;4.498;2024-02-21T03:57:10;101963.97;;;8.60;100.00
60437;BME280;46289;51.992;4.498;2024-02-21T03:59:14;101956.94;;;8.62;100.00
60437;BME280;46289;51.992;4.498;2024-02-21T04:01:19;101958.72;;;8.58;100.00
60437;BME280;46289;51.992;4.498;2024-02-21T04:03:23;101960.47;;;8.57;100.00
60437;BME280;46289;51.992;4.498;2024-02-21T04:05:31;101948.25;;;8.60;100.00
60437;BME280;46289;51.992;4.498;2024-02-21T04:07:36;101962.25;;;8.57;100.00
60437;BME280;46289;51.992;4.498;2024-02-21T04:09:41;101966.63;;;8.55;100.00
60437;BME280;46289;51.992;4.498;2024-02-21T04:11:46;101959.63;;;8.57;100.00
60437;BME280;46289;51.992;4.498;2024-02-21T04:13:51;101979.69;;;8.58;100.00
60437;BME280;46289;51.992;4.498;2024-02-21T04:15:56;101973.59;;;8.57;100.00
60437;BME280;46289;51.992;4.498;2024-02-21T04:18:03;101963.09;;;8.57;100.00
60437;BME280;46289;51.992;4.498;2024-02-21T04:20:14;101966.59;;;8.58;100.00
60437;BME280;46289;51.992;4.498;2024-02-21T04:22:22;101962.25;;;8.57;100.00
60437;BME280;46289;51.992;4.498;2024-02-21T04:24:27;101960.53;;;8.54;100.00
60437;BME280;46289;51.992;4.498;2024-02-21T04:26:32;101959.63;;;8.59;100.00
60437;BME280;46289;51.992;4.498;2024-02-21T04:28:37;101953.53;;;8.55;100.00
60437;BME280;46289;51.992;4.498;2024-02-21T04:30:40;101955.25;;;8.59;100.00
60437;BME280;46289;51.992;4.498;2024-02-21T04:32:46;101949.16;;;8.55;100.00
60437;BME280;46289;51.992;4.498;2024-02-21T04:34:54;101946.56;;;8.54;100.00
60437;BME280;46289;51.992;4.498;2024-02-21T04:36:59;101943.03;;;8.56;100.00
60437;BME280;46289;51.992;4.498;2024-02-21T04:39:07;101943.84;;;8.60;100.00
60437;BME280;46289;51.992;4.498;2024-02-21T04:41:12;101925.47;;;8.63;100.00
60437;BME280;46289;51.992;4.498;2024-02-21T04:43:17;101929.91;;;8.58;100.00
60437;BME280;46289;51.992;4.498;2024-02-21T04:45:19;101922.03;;;8.60;100.00
60437;BME280;46289;51.992;4.498;2024-02-21T04:47:26;101929.03;;;8.59;100.00
60437;BME280;46289;51.992;4.498;2024-02-21T04:49:31;101928.19;;;8.59;100.00
60437;BME280;46289;51.992;4.498;2024-02-21T04:51:37;101920.31;;;8.57;100.00
60437;BME280;46289;51.992;4.498;2024-02-21T04:53:41;101926.41;;;8.59;100.00
60437;BME280;46289;51.992;4.498;2024-02-21T04:55:49;101929.09;;;8.53;100.00
60437;BME280;46289;51.992;4.498;2024-02-21T04:57:54;101921.25;;;8.53;100.00
60437;BME280;46289;51.992;4.498;2024-02-21T04:59:59;101909.03;;;8.52;100.00
60437;BME280;46289;51.992;4.498;2024-02-21T05:02:01;101904.75;;;8.48;100.00
60437;BME280;46289;51.992;4.498;2024-02-21T05:04:06;101902.97;;;8.50;100.00
60437;BME280;46289;51.992;4.498;2024-02-21T05:06:11;101903.88;;;8.47;100.00
60437;BME280;46289;51.992;4.498;2024-02-21T05:08:16;101900.38;;;8.47;100.00
60437;BME280;46289;51.992;4.498;2024-02-21T05:10:25;101889.81;;;8.53;100.00
60437;BME280;46289;51.992;4.498;2024-02-21T05:12:33;101885.53;;;8.49;100.00
60437;BME280;46289;51.992;4.498;2024-02-21T05:14:38;101881.13;;;8.51;100.00
60437;BME280;46289;51.992;4.498;2024-02-21T05:16:43;101882.91;;;8.47;100.00
60437;BME280;46289;51.992;4.498;2024-02-21T05:18:48;101880.22;;;8.52;100.00
60437;BME280;46289;51.992;4.498;2024-02-21T05:20:54;101875.91;;;8.49;100.00
60437;BME280;46289;51.992;4.498;2024-02-21T05:22:59;101867.19;;;8.49;100.00
60437;BME280;46289;51.992;4.498;2024-02-21T05:25:01;101863.72;;;8.47;100.00
60437;BME280;46289;51.992;4.498;2024-02-21T05:27:06;101851.47;;;8.47;100.00
60437;BME280;46289;51.992;4.498;2024-02-21T05:29:14;101844.50;;;8.48;100.00
60437;BME280;46289;51.992;4.498;2024-02-21T05:31:19;101848.00;;;8.48;100.00
60437;BME280;46289;51.992;4.498;2024-02-21T05:33:24;101841.84;;;8.51;100.00
60437;BME280;46289;51.992;4.498;2024-02-21T05:35:29;101842.75;;;8.47;100.00
60437;BME280;46289;51.992;4.498;2024-02-21T05:37:34;101841.00;;;8.49;100.00
60437;BME280;46289;51.992;4.498;2024-02-21T05:39:40;101841.88;;;8.48;100.00
60437;BME280;46289;51.992;4.498;2024-02-21T05:41:45;101831.34;;;8.51;100.00
60437;BME280;46289;51.992;4.498;2024-02-21T05:43:47;101831.41;;;8.48;100.00
60437;BME280;46289;51.992;4.498;2024-02-21T05:45:55;101830.56;;;8.46;100.00
60437;BME280;46289;51.992;4.498;2024-02-21T05:48:00;101823.56;;;8.45;100.00
60437;BME280;46289;51.992;4.498;2024-02-21T05:50:06;101832.28;;;8.47;100.00
60437;BME280;46289;51.992;4.498;2024-02-21T05:52:12;101820.03;;;8.47;100.00
60437;BME280;46289;51.992;4.498;2024-02-21T05:54:17;101820.03;;;8.49;100.00
60437;BME280;46289;51.992;4.498;2024-02-21T05:56:25;101810.53;;;8.42;100.00
60437;BME280;46289;51.992;4.498;2024-02-21T05:58:31;101818.34;;;8.45;100.00
60437;BME280;46289;51.992;4.498;2024-02-21T06:00:37;101812.22;;;8.46;100.00
60437;BME280;46289;51.992;4.498;2024-02-21T06:02:44;101806.09;;;8.47;100.00
60437;BME280;46289;51.992;4.498;2024-02-21T06:04:49;101801.75;;;8.46;100.00
60437;BME280;46289;51.992;4.498;2024-02-21T06:06:54;101805.16;;;8.51;100.00
60437;BME280;46289;51.992;4.498;2024-02-21T06:08:59;101800.00;;;8.45;100.00
60437;BME280;46289;51.992;4.498;2024-02-21T06:11:05;101804.38;;;8.44;100.00
60437;BME280;46289;51.992;4.498;2024-02-21T06:13:11;101804.47;;;8.38;100.00
60437;BME280;46289;51.992;4.498;2024-02-21T06:15:16;101803.59;;;8.38;100.00
60437;BME280;46289;51.992;4.498;2024-02-21T06:17:24;101805.38;;;8.35;100.00
60437;BME280;46289;51.992;4.498;2024-02-21T06:19:31;101805.31;;;8.37;100.00
60437;BME280;46289;51.992;4.498;2024-02-21T06:21:36;101812.31;;;8.40;100.00
60437;BME280;46289;51.992;4.498;2024-02-21T06:23:42;101814.09;;;8.34;100.00
60437;BME280;46289;51.992;4.498;2024-02-21T06:25:44;101823.66;;;8.37;100.00
60437;BME280;46289;51.992;4.498;2024-02-21T06:27:49;101819.38;;;8.31;100.00
60437;BME280;46289;51.992;4.498;2024-02-21T06:29:54;101827.16;;;8.38;100.00
60437;BME280;46289;51.992;4.498;2024-02-21T06:31:59;101827.19;;;8.34;100.00
60437;BME280;46289;51.992;4.498;2024-02-21T06:34:04;101809.72;;;8.36;100.00
60437;BME280;46289;51.992;4.498;2024-02-21T06:36:13;101807.94;;;8.39;100.00
60437;BME280;46289;51.992;4.498;2024-02-21T06:38:18;101811.38;;;8.44;100.00
60437;BME280;46289;51.992;4.498;2024-02-21T06:40:24;101800.13;;;8.35;100.00
60437;BME280;46289;51.992;4.498;2024-02-21T06:42:29;101794.84;;;8.39;100.00
60437;BME280;46289;51.992;4.498;2024-02-21T06:44:34;101792.22;;;8.39;100.00
60437;BME280;46289;51.992;4.498;2024-02-21T06:46:42;101791.38;;;8.36;100.00
60437;BME280;46289;51.992;4.498;2024-02-21T06:48:48;101791.34;;;8.40;100.00
60437;BME280;46289;51.992;4.498;2024-02-21T06:50:55;101793.13;;;8.38;100.00
60437;BME280;46289;51.992;4.498;2024-02-21T06:53:03;101783.47;;;8.41;100.00
60437;BME280;46289;51.992;4.498;2024-02-21T06:55:08;101780.91;;;8.36;100.00
60437;BME280;46289;51.992;4.498;2024-02-21T06:57:13;101774.84;;;8.33;100.00
60437;BME280;46289;51.992;4.498;2024-02-21T06:59:18;101782.66;;;8.38;100.00
60437;BME280;46289;51.992;4.498;2024-02-21T07:01:24;101788.75;;;8.36;100.00
60437;BME280;46289;51.992;4.498;2024-02-21T07:03:29;101775.72;;;8.32;100.00
60437;BME280;46289;51.992;4.498;2024-02-21T07:05:34;101770.47;;;8.33;100.00
60437;BME280;46289;51.992;4.498;2024-02-21T07:07:39;101768.72;;;8.35;100.00
60437;BME280;46289;51.992;4.498;2024-02-21T07:09:48;101764.34;;;8.34;100.00
60437;BME280;46289;51.992;4.498;2024-02-21T07:11:55;101769.63;;;8.33;100.00
60437;BME280;46289;51.992;4.498;2024-02-21T07:14:00;101766.19;;;8.29;100.00
60437;BME280;46289;51.992;4.498;2024-02-21T07:16:06;101756.53;;;8.31;100.00
60437;BME280;46289;51.992;4.498;2024-02-21T07:18:09;101763.59;;;8.26;100.00
60437;BME280;46289;51.992;4.498;2024-02-21T07:20:14;101759.31;;;8.21;100.00
60437;BME280;46289;51.992;4.498;2024-02-21T07:22:19;101752.28;;;8.26;100.00
60437;BME280;46289;51.992;4.498;2024-02-21T07:24:24;101743.69;;;8.16;100.00
60437;BME280;46289;51.992;4.498;2024-02-21T07:26:32;101742.81;;;8.16;100.00
60437;BME280;46289;51.992;4.498;2024-02-21T07:28:37;101729.66;;;8.20;100.00
60437;BME280;46289;51.992;4.498;2024-02-21T07:30:43;101730.53;;;8.22;100.00
60437;BME280;46289;51.992;4.498;2024-02-21T07:32:49;101732.31;;;8.19;100.00
60437;BME280;46289;51.992;4.498;2024-02-21T07:34:55;101727.06;;;8.20;100.00
60437;BME280;46289;51.992;4.498;2024-02-21T07:37:00;101717.56;;;8.14;100.00
60437;BME280;46289;51.992;4.498;2024-02-21T07:39:05;101724.38;;;8.25;100.00
60437;BME280;46289;51.992;4.498;2024-02-21T07:41:10;101725.47;;;8.11;100.00
60437;BME280;46289;51.992;4.498;2024-02-21T07:43:18;101730.63;;;8.14;100.00
60437;BME280;46289;51.992;4.498;2024-02-21T07:45:24;101726.25;;;8.17;100.00
60437;BME280;46289;51.992;4.498;2024-02-21T07:47:31;101706.09;;;8.20;100.00
60437;BME280;46289;51.992;4.498;2024-02-21T07:49:41;101707.78;;;8.24;100.00
60437;BME280;46289;51.992;4.498;2024-02-21T07:51:46;101700.88;;;8.20;100.00
60437;BME280;46289;51.992;4.498;2024-02-21T07:53:52;101693.75;;;8.28;100.00
60437;BME280;46289;51.992;4.498;2024-02-21T07:55:57;101693.00;;;8.22;100.00
60437;BME280;46289;51.992;4.498;2024-02-21T07:58:03;101691.31;;;8.16;100.00
60437;BME280;46289;51.992;4.498;2024-02-21T08:00:14;101695.69;;;8.16;100.00
60437;BME280;46289;51.992;4.498;2024-02-21T08:02:23;101693.03;;;8.19;100.00
60437;BME280;46289;51.992;4.498;2024-02-21T08:04:28;101699.09;;;8.22;100.00
60437;BME280;46289;51.992;4.498;2024-02-21T08:06:33;101697.47;;;8.13;100.00
60437;BME280;46289;51.992;4.498;2024-02-21T08:08:39;101693.94;;;8.16;100.00
60437;BME280;46289;51.992;4.498;2024-02-21T08:10:47;101686.09;;;8.16;100.00
60437;BME280;46289;51.992;4.498;2024-02-21T08:12:56;101688.63;;;8.22;100.00
60437;BME280;46289;51.992;4.498;2024-02-21T08:15:04;101681.63;;;8.21;100.00
60437;BME280;46289;51.992;4.498;2024-02-21T08:17:09;101678.16;;;8.22;100.00
60437;BME280;46289;51.992;4.498;2024-02-21T08:19:15;101671.16;;;8.21;100.00
60437;BME280;46289;51.992;4.498;2024-02-21T08:21:20;101671.94;;;8.26;100.00
60437;BME280;46289;51.992;4.498;2024-02-21T08:23:27;101661.59;;;8.22;100.00
60437;BME280;46289;51.992;4.498;2024-02-21T08:25:30;101657.19;;;8.22;100.00
60437;BME280;46289;51.992;4.498;2024-02-21T08:27:38;101665.00;;;8.24;100.00
60437;BME280;46289;51.992;4.498;2024-02-21T08:29:45;101653.75;;;8.20;100.00
60437;BME280;46289;51.992;4.498;2024-02-21T08:31:50;101654.53;;;8.24;100.00
60437;BME280;46289;51.992;4.498;2024-02-21T08:34:01;101647.53;;;8.26;100.00
60437;BME280;46289;51.992;4.498;2024-02-21T08:36:07;101643.22;;;8.23;100.00
60437;BME280;46289;51.992;4.498;2024-02-21T08:38:14;101646.75;;;8.21;100.00
60437;BME280;46289;51.992;4.498;2024-02-21T08:40:20;101637.06;;;8.26;100.00
60437;BME280;46289;51.992;4.498;2024-02-21T08:42:25;101642.22;;;8.29;100.00
60437;BME280;46289;51.992;4.498;2024-02-21T08:44:35;101634.41;;;8.27;100.00
60437;BME280;46289;51.992;4.498;2024-02-21T08:46:42;101633.41;;;8.34;100.00
60437;BME280;46289;51.992;4.498;2024-02-21T08:48:49;101629.97;;;8.32;100.00
60437;BME280;46289;51.992;4.498;2024-02-21T08:50:57;101622.06;;;8.34;100.00
60437;BME280;46289;51.992;4.498;2024-02-21T08:53:02;101623.84;;;8.32;100.00
60437;BME280;46289;51.992;4.498;2024-02-21T08:55:08;101619.50;;;8.32;100.00
60437;BME280;46289;51.992;4.498;2024-02-21T08:57:13;101611.59;;;8.34;100.00
60437;BME280;46289;51.992;4.498;2024-02-21T08:59:18;101607.16;;;8.41;100.00
60437;BME280;46289;51.992;4.498;2024-02-21T09:01:23;101609.75;;;8.41;100.00
60437;BME280;46289;51.992;4.498;2024-02-21T09:03:29;101613.94;;;8.49;100.00
60437;BME280;46289;51.992;4.498;2024-02-21T09:05:35;101607.06;;;8.45;100.00
60437;BME280;46289;51.992;4.498;2024-02-21T09:07:43;101597.25;;;8.55;100.00
60437;BME280;46289;51.992;4.498;2024-02-21T09:09:46;101599.00;;;8.56;100.00
60437;BME280;46289;51.992;4.498;2024-02-21T09:11:51;101587.75;;;8.49;100.00
60437;BME280;46289;51.992;4.498;2024-02-21T09:13:56;101588.44;;;8.59;100.00
60437;BME280;46289;51.992;4.498;2024-02-21T09:16:03;101576.97;;;8.66;100.00
60437;BME280;46289;51.992;4.498;2024-02-21T09:18:09;101572.53;;;8.68;100.00
60437;BME280;46289;51.992;4.498;2024-02-21T09:20:16;101557.78;;;8.64;100.00
60437;BME280;46289;51.992;4.498;2024-02-21T09:22:24;101558.72;;;8.60;100.00
60437;BME280;46289;51.992;4.498;2024-02-21T09:24:31;101537.81;;;8.59;100.00
60437;BME280;46289;51.992;4.498;2024-02-21T09:26:38;101544.59;;;8.67;100.00
60437;BME280;46289;51.992;4.498;2024-02-21T09:28:43;101534.06;;;8.70;100.00
60437;BME280;46289;51.992;4.498;2024-02-21T09:30:49;101528.84;;;8.69;100.00
60437;BME280;46289;51.992;4.498;2024-02-21T09:32:54;101525.34;;;8.70;100.00
60437;BME280;46289;51.992;4.498;2024-02-21T09:35:01;101526.13;;;8.73;100.00
60437;BME280;46289;51.992;4.498;2024-02-21T09:37:07;101517.06;;;8.88;100.00
60437;BME280;46289;51.992;4.498;2024-02-21T09:39:10;101502.47;;;8.76;100.00
60437;BME280;46289;51.992;4.498;2024-02-21T09:41:26;101506.66;;;8.85;100.00
60437;BME280;46289;51.992;4.498;2024-02-21T09:43:34;101512.59;;;8.92;100.00
60437;BME280;46289;51.992;4.498;2024-02-21T09:45:44;101494.25;;;8.93;100.00
60437;BME280;46289;51.992;4.498;2024-02-21T09:48:03;101488.06;;;8.96;100.00
60437;BME280;46289;51.992;4.498;2024-02-21T09:50:11;101472.34;;;8.96;100.00
60437;BME280;46289;51.992;4.498;2024-02-21T09:52:19;101473.94;;;9.01;100.00
60437;BME280;46289;51.992;4.498;2024-02-21T09:54:30;101476.38;;;9.09;100.00
60437;BME280;46289;51.992;4.498;2024-02-21T09:56:35;101471.22;;;9.06;100.00
60437;BME280;46289;51.992;4.498;2024-02-21T09:58:41;101461.53;;;9.08;100.00
60437;BME280;46289;51.992;4.498;2024-02-21T10:00:47;101467.78;;;9.02;100.00
60437;BME280;46289;51.992;4.498;2024-02-21T10:02:54;101453.94;;;8.97;100.00
60437;BME280;46289;51.992;4.498;2024-02-21T10:04:59;101454.59;;;9.06;100.00
60437;BME280;46289;51.992;4.498;2024-02-21T10:07:06;101438.03;;;9.05;100.00
60437;BME280;46289;51.992;4.498;2024-02-21T10:09:23;101433.72;;;9.02;100.00
60437;BME280;46289;51.992;4.498;2024-02-21T10:11:31;101422.25;;;9.07;100.00
60437;BME280;46289;51.992;4.498;2024-02-21T10:13:36;101412.47;;;9.13;100.00
60437;BME280;46289;51.992;4.498;2024-02-21T10:15:42;101401.28;;;9.07;100.00
60437;BME280;46289;51.992;4.498;2024-02-21T10:17:58;101400.38;;;9.08;100.00
60437;BME280;46289;51.992;4.498;2024-02-21T10:20:10;101379.28;;;9.12;100.00
60437;BME280;46289;51.992;4.498;2024-02-21T10:22:18;101402.38;;;9.32;100.00
60437;BME280;46289;51.992;4.498;2024-02-21T10:24:27;101397.16;;;9.31;100.00
60437;BME280;46289;51.992;4.498;2024-02-21T10:26:35;101396.25;;;9.32;100.00
60437;BME280;46289;51.992;4.498;2024-02-21T10:28:43;101411.69;;;9.44;100.00
60437;BME280;46289;51.992;4.498;2024-02-21T10:30:50;101419.75;;;9.36;100.00
60437;BME280;46289;51.992;4.498;2024-02-21T10:33:01;101410.94;;;9.39;100.00
60437;BME280;46289;51.992;4.498;2024-02-21T10:35:06;101412.72;;;9.38;100.00
60437;BME280;46289;51.992;4.498;2024-02-21T10:37:12;101407.47;;;9.38;100.00
60437;BME280;46289;51.992;4.498;2024-02-21T10:39:17;101400.53;;;9.36;100.00
60437;BME280;46289;51.992;4.498;2024-02-21T10:41:26;101409.03;;;9.45;100.00
60437;BME280;46289;51.992;4.498;2024-02-21T10:43:38;101402.22;;;9.38;100.00
60437;BME280;46289;51.992;4.498;2024-02-21T10:45:53;101397.91;;;9.36;100.00
60437;BME280;46289;51.992;4.498;2024-02-21T10:48:08;101382.09;;;9.39;100.00
60437;BME280;46289;51.992;4.498;2024-02-21T10:50:17;101392.41;;;9.45;100.00
60437;BME280;46289;51.992;4.498;2024-02-21T10:52:32;101381.34;;;9.34;100.00
60437;BME280;46289;51.992;4.498;2024-02-21T10:54:44;101377.75;;;9.38;100.00
60437;BME280;46289;51.992;4.498;2024-02-21T10:56:57;101381.31;;;9.35;100.00
60437;BME280;46289;51.992;4.498;2024-02-21T10:59:05;101377.00;;;9.33;100.00